createdAt,value
2023-01-13T00:00:00.453Z,99917.75
2023-01-13T00:02:29.016Z,99904.19
2023-01-13T00:04:59.140Z,99916.66
2023-01-13T00:07:27.882Z,99923.22
2023-01-13T00:09:56.139Z,99910.16
2023-01-13T00:12:24.472Z,99912.19
2023-01-13T00:14:53.132Z,99913.38
2023-01-13T00:17:21.442Z,99910.16
2023-01-13T00:19:50.178Z,99920.66
2023-01-13T00:22:23.337Z,99924.00
2023-01-13T00:24:51.969Z,99915.72
2023-01-13T00:27:21.359Z,99923.06
2023-01-13T00:29:49.822Z,99908.53
2023-01-13T00:32:19.550Z,99913.75
2023-01-13T00:34:48.184Z,99921.53
2023-01-13T00:37:16.310Z,99914.31
2023-01-13T00:39:45.995Z,99918.53
2023-01-13T00:42:33.474Z,99908.91
2023-01-13T00:45:01.881Z,99910.19
2023-01-13T00:47:30.058Z,99907.72
2023-01-13T00:49:58.375Z,99905.56
2023-01-13T00:52:27.271Z,99895.94
2023-01-13T00:54:57.265Z,99912.41
2023-01-13T00:57:25.649Z,99902.34
2023-01-13T00:59:53.929Z,99903.44
2023-01-13T01:02:22.189Z,99909.53
2023-01-13T01:04:50.829Z,99913.53
2023-01-13T01:07:20.464Z,99918.31
2023-01-13T01:09:49.868Z,99912.63
2023-01-13T01:12:21.133Z,99910.25
2023-01-13T01:14:49.732Z,99918.13
2023-01-13T01:17:18.297Z,99900.13
2023-01-13T01:19:46.847Z,99916.13
2023-01-13T01:22:16.289Z,99911.28
2023-01-13T01:24:45.192Z,99919.97
2023-01-13T01:27:13.855Z,99917.91
2023-01-13T01:29:45.025Z,99909.81
2023-01-13T01:32:13.287Z,99915.16
2023-01-13T01:34:44.283Z,99910.28
2023-01-13T01:37:12.382Z,99895.75
2023-01-13T01:39:40.917Z,99902.25
2023-01-13T01:42:33.000Z,99890.53
2023-01-13T01:45:06.700Z,99893.66
2023-01-13T01:47:35.909Z,99891.09
2023-01-13T01:50:05.502Z,99889.69
2023-01-13T01:52:37.418Z,99895.41
2023-01-13T01:55:08.280Z,99898.84
2023-01-13T01:57:43.139Z,99891.91
2023-01-13T02:00:14.757Z,99888.94
2023-01-13T02:02:48.386Z,99880.91
2023-01-13T02:05:17.052Z,99881.94
2023-01-13T02:07:47.467Z,99878.56
2023-01-13T02:10:17.425Z,99886.56
2023-01-13T02:12:46.791Z,99879.09
2023-01-13T02:15:22.867Z,99885.09
2023-01-13T02:18:05.304Z,99873.38
2023-01-13T02:20:53.795Z,99872.06
2023-01-13T02:24:16.438Z,99869.00
2023-01-13T02:27:21.142Z,99867.44
2023-01-13T02:30:16.206Z,99862.59
2023-01-13T02:32:52.633Z,99859.50
2023-01-13T02:35:25.543Z,99864.06
2023-01-13T02:37:54.952Z,99862.38
2023-01-13T02:40:27.145Z,99865.13
2023-01-13T02:43:14.644Z,99859.22
2023-01-13T02:45:49.434Z,99871.59
2023-01-13T02:48:19.404Z,99866.53
2023-01-13T02:50:51.739Z,99858.16
2023-01-13T02:53:23.676Z,99863.94
2023-01-13T02:55:54.606Z,99866.56
2023-01-13T02:58:26.035Z,99858.66
2023-01-13T03:00:56.086Z,99859.38
2023-01-13T03:03:25.512Z,99867.84
2023-01-13T03:05:55.601Z,99846.59
2023-01-13T03:08:33.439Z,99858.88
2023-01-13T03:11:07.640Z,99856.28
2023-01-13T03:13:47.565Z,99859.72
2023-01-13T03:16:24.451Z,99877.38
2023-01-13T03:18:59.948Z,99856.22
2023-01-13T03:21:31.452Z,99849.19
2023-01-13T03:24:03.755Z,99835.75
2023-01-13T03:26:35.867Z,99831.69
2023-01-13T03:29:10.521Z,99849.97
2023-01-13T03:31:50.548Z,99851.22
2023-01-13T03:34:23.090Z,99849.91
2023-01-13T03:36:54.141Z,99843.31
2023-01-13T03:39:27.562Z,99844.38
2023-01-13T03:42:00.178Z,99841.00
2023-01-13T03:44:32.837Z,99850.31
2023-01-13T03:47:10.151Z,99852.59
2023-01-13T03:49:42.588Z,99850.16
2023-01-13T03:52:13.965Z,99851.38
2023-01-13T03:54:48.071Z,99841.41
2023-01-13T03:57:17.461Z,99852.16
2023-01-13T03:59:48.167Z,99854.47
2023-01-13T04:02:22.480Z,99842.13
2023-01-13T04:04:55.857Z,99840.31
2023-01-13T04:07:30.412Z,99835.22
2023-01-13T04:10:02.112Z,99828.81
2023-01-13T04:12:52.221Z,99826.31
2023-01-13T04:15:22.836Z,99838.81
2023-01-13T04:17:54.831Z,99829.97
2023-01-13T04:20:24.208Z,99842.25
2023-01-13T04:22:52.383Z,99823.94
2023-01-13T04:25:20.904Z,99826.44
2023-01-13T04:27:49.265Z,99832.78
2023-01-13T04:30:17.960Z,99830.97
2023-01-13T04:32:48.273Z,99844.09
2023-01-13T04:35:20.486Z,99841.28
2023-01-13T04:37:49.141Z,99844.75
2023-01-13T04:40:17.728Z,99852.63
2023-01-13T04:42:47.061Z,99852.81
2023-01-13T04:45:16.067Z,99844.38
2023-01-13T04:47:44.993Z,99849.31
2023-01-13T04:50:13.716Z,99839.56
2023-01-13T04:52:43.352Z,99859.84
2023-01-13T04:55:12.418Z,99854.50
2023-01-13T04:57:42.622Z,99851.63
2023-01-13T05:00:13.326Z,99855.09
2023-01-13T05:02:42.370Z,99853.94
2023-01-13T05:05:11.161Z,99857.25
2023-01-13T05:07:39.455Z,99857.53
2023-01-13T05:10:11.372Z,99863.84
2023-01-13T05:12:59.043Z,99864.25
2023-01-13T05:15:47.330Z,99858.53
2023-01-13T05:18:15.668Z,99854.88
2023-01-13T05:20:43.894Z,99855.66
2023-01-13T05:23:29.886Z,99865.59
2023-01-13T05:26:03.389Z,99855.31
2023-01-13T05:28:33.472Z,99862.16
2023-01-13T05:31:02.065Z,99859.69
2023-01-13T05:33:30.793Z,99848.47
2023-01-13T05:36:04.481Z,99858.41
2023-01-13T05:38:35.268Z,99871.34
2023-01-13T05:41:22.854Z,99859.41
2023-01-13T05:44:02.973Z,99872.38
2023-01-13T05:46:31.708Z,99855.22
2023-01-13T05:49:01.658Z,99855.31
2023-01-13T05:51:29.718Z,99864.50
2023-01-13T05:53:59.369Z,99875.00
2023-01-13T05:56:30.399Z,99877.19
2023-01-13T05:58:58.590Z,99875.50
2023-01-13T06:01:26.976Z,99867.50
2023-01-13T06:03:54.962Z,99875.47
2023-01-13T06:06:23.607Z,99871.44
2023-01-13T06:08:51.670Z,99887.00
2023-01-13T06:11:19.596Z,99878.56
2023-01-13T06:13:50.424Z,99861.16
2023-01-13T06:16:18.861Z,99866.50
2023-01-13T06:18:46.923Z,99869.94
2023-01-13T06:21:15.253Z,99873.00
2023-01-13T06:23:43.206Z,99887.25
2023-01-13T06:26:16.610Z,99895.81
2023-01-13T06:28:45.446Z,99905.31
2023-01-13T06:31:16.495Z,99892.97
2023-01-13T06:33:46.548Z,99892.06
2023-01-13T06:36:17.087Z,99896.81
2023-01-13T06:38:47.613Z,99901.13
2023-01-13T06:41:16.057Z,99900.66
2023-01-13T06:43:43.025Z,99902.59
2023-01-13T06:46:11.223Z,99894.47
2023-01-13T06:48:41.054Z,99881.16
2023-01-13T06:51:09.851Z,99858.78
2023-01-13T06:53:38.758Z,99863.38
2023-01-13T06:56:08.127Z,99868.50
2023-01-13T06:58:36.925Z,99876.00
2023-01-13T07:01:05.373Z,99885.81
2023-01-13T07:03:33.679Z,99886.69
2023-01-13T07:06:03.380Z,99886.44
2023-01-13T07:08:31.734Z,99878.88
2023-01-13T07:11:00.239Z,99879.50
2023-01-13T07:13:45.658Z,99882.59
2023-01-13T07:16:14.107Z,99892.72
2023-01-13T07:18:42.773Z,99887.16
2023-01-13T07:21:18.818Z,99879.81
2023-01-13T07:23:47.635Z,99880.97
2023-01-13T07:26:16.247Z,99873.59
2023-01-13T07:28:46.389Z,99868.31
2023-01-13T07:31:16.416Z,99868.97
2023-01-13T07:33:45.003Z,99842.94
2023-01-13T07:36:21.442Z,99856.44
2023-01-13T07:38:49.762Z,99865.25
2023-01-13T07:41:35.150Z,99885.44
2023-01-13T07:44:06.264Z,99883.81
2023-01-13T07:46:37.707Z,99873.81
2023-01-13T07:49:17.084Z,99888.81
2023-01-13T07:51:58.953Z,99898.41
2023-01-13T07:54:39.651Z,99905.72
2023-01-13T07:57:10.950Z,99898.47
2023-01-13T07:59:40.257Z,99885.59
2023-01-13T08:02:13.630Z,99907.78
2023-01-13T08:04:42.129Z,99914.16
2023-01-13T08:07:12.009Z,99930.94
2023-01-13T08:09:40.408Z,99932.78
2023-01-13T08:12:27.908Z,99935.88
2023-01-13T08:14:56.355Z,99938.34
2023-01-13T08:17:28.676Z,99941.59
2023-01-13T08:19:59.497Z,99935.56
2023-01-13T08:22:31.299Z,99947.72
2023-01-13T08:25:00.277Z,99949.66
2023-01-13T08:27:28.318Z,99956.91
2023-01-13T08:29:56.434Z,99970.75
2023-01-13T08:32:24.484Z,99972.38
2023-01-13T08:34:52.719Z,99948.09
2023-01-13T08:37:21.097Z,99925.47
2023-01-13T08:39:51.279Z,99937.16
2023-01-13T08:42:20.140Z,99932.31
2023-01-13T08:44:48.739Z,99931.38
2023-01-13T08:47:20.257Z,99938.38
2023-01-13T08:49:48.862Z,99937.34
2023-01-13T08:52:18.008Z,99944.38
2023-01-13T08:54:47.187Z,99977.50
2023-01-13T08:57:19.597Z,99975.97
2023-01-13T08:59:48.595Z,99966.06
2023-01-13T09:02:18.811Z,99980.09
2023-01-13T09:04:50.729Z,99981.28
2023-01-13T09:07:19.567Z,99983.41
2023-01-13T09:09:47.754Z,99946.03
2023-01-13T09:12:36.219Z,99873.44
2023-01-13T09:15:06.563Z,99841.97
2023-01-13T09:17:35.355Z,99862.56
2023-01-13T09:20:03.521Z,99877.72
2023-01-13T09:22:32.030Z,99888.41
2023-01-13T09:25:04.478Z,99935.25
2023-01-13T09:27:34.026Z,99952.03
2023-01-13T09:30:02.062Z,99962.25
2023-01-13T09:32:30.253Z,99947.44
2023-01-13T09:35:02.725Z,99945.19
2023-01-13T09:37:34.092Z,99964.59
2023-01-13T09:40:03.513Z,99937.56
2023-01-13T09:43:01.548Z,99931.56
2023-01-13T09:45:36.156Z,99930.78
2023-01-13T09:48:08.331Z,99919.22
2023-01-13T09:51:09.706Z,99948.31
2023-01-13T09:53:41.609Z,99954.50
2023-01-13T09:56:11.064Z,99943.50
2023-01-13T09:58:40.884Z,99961.41
2023-01-13T10:01:19.409Z,99955.50
2023-01-13T10:03:48.947Z,99967.91
2023-01-13T10:06:23.272Z,99968.34
2023-01-13T10:08:52.524Z,99968.66
2023-01-13T10:11:39.627Z,99967.44
2023-01-13T10:14:17.491Z,99970.19
2023-01-13T10:16:49.648Z,99972.75
2023-01-13T10:19:20.044Z,99972.47
2023-01-13T10:22:18.108Z,99977.44
2023-01-13T10:25:20.685Z,99968.09
2023-01-13T10:27:54.281Z,99960.31
2023-01-13T10:30:31.554Z,99965.22
2023-01-13T10:33:01.791Z,99966.75
2023-01-13T10:35:55.922Z,99968.38
2023-01-13T10:38:26.013Z,99962.19
2023-01-13T10:40:55.859Z,99966.88
2023-01-13T10:43:25.225Z,99967.69
2023-01-13T10:46:04.590Z,99957.59
2023-01-13T10:48:39.643Z,99969.00
2023-01-13T10:51:21.834Z,99957.56
2023-01-13T10:53:56.882Z,99960.94
2023-01-13T10:56:27.188Z,99957.66
2023-01-13T10:59:11.077Z,99956.22
2023-01-13T11:01:43.235Z,99949.16
2023-01-13T11:04:31.062Z,99955.13
2023-01-13T11:07:03.033Z,99960.47
2023-01-13T11:09:33.681Z,99963.44
2023-01-13T11:12:03.281Z,99965.31
2023-01-13T11:14:39.670Z,99969.03
2023-01-13T11:17:18.259Z,99946.03
2023-01-13T11:19:54.680Z,99961.09
2023-01-13T11:22:25.952Z,99953.13
2023-01-13T11:24:56.661Z,99973.66
2023-01-13T11:27:33.978Z,99961.00
2023-01-13T11:30:10.259Z,99977.94
2023-01-13T11:32:45.571Z,99962.72
2023-01-13T11:35:19.077Z,99968.38
2023-01-13T11:37:50.608Z,99960.84
2023-01-13T11:40:25.419Z,99965.56
2023-01-13T11:42:57.610Z,99972.13
2023-01-13T11:45:32.435Z,99959.25
2023-01-13T11:48:03.209Z,99961.97
2023-01-13T11:50:35.950Z,99963.94
2023-01-13T11:53:14.150Z,99952.88
2023-01-13T11:55:51.289Z,99958.97
2023-01-13T11:58:33.818Z,99983.84
2023-01-13T12:01:33.033Z,99961.50
2023-01-13T12:04:15.295Z,99968.88
2023-01-13T12:06:44.666Z,99981.28
2023-01-13T12:09:25.955Z,99968.69
2023-01-13T12:12:23.353Z,99973.81
2023-01-13T12:15:30.454Z,99973.25
2023-01-13T12:18:22.552Z,99962.94
2023-01-13T12:21:35.593Z,99956.41
2023-01-13T12:24:14.934Z,99977.28
2023-01-13T12:26:46.396Z,99968.81
2023-01-13T12:29:19.424Z,99963.59
2023-01-13T12:31:49.947Z,99969.38
2023-01-13T12:34:38.687Z,99970.09
2023-01-13T12:37:14.092Z,99965.91
2023-01-13T12:39:52.747Z,99973.28
2023-01-13T12:43:09.563Z,99972.41
2023-01-13T12:45:42.642Z,99965.56
2023-01-13T12:48:49.162Z,99963.69
2023-01-13T12:51:29.020Z,99991.41
2023-01-13T12:53:57.713Z,99987.59
2023-01-13T12:56:42.278Z,99989.25
2023-01-13T12:59:35.138Z,100006.38
2023-01-13T13:02:34.734Z,99985.06
2023-01-13T13:05:50.084Z,99991.00
2023-01-13T13:08:39.619Z,99988.22
2023-01-13T13:11:41.308Z,99979.91
2023-01-13T13:14:35.887Z,99985.00
2023-01-13T13:17:14.482Z,99992.50
2023-01-13T13:20:03.344Z,99989.22
2023-01-13T13:22:45.883Z,100002.59
2023-01-13T13:25:31.065Z,99997.72
2023-01-13T13:28:20.079Z,99995.59
2023-01-13T13:31:09.007Z,100005.19
2023-01-13T13:33:57.685Z,100006.97
2023-01-13T13:36:44.238Z,99999.97
2023-01-13T13:39:39.714Z,100006.78
2023-01-13T13:42:32.085Z,99991.69
2023-01-13T13:45:36.621Z,100004.53
2023-01-13T13:52:09.994Z,99998.28
2023-01-13T13:54:44.444Z,99994.09
2023-01-13T13:57:21.067Z,100004.63
2023-01-13T13:59:53.144Z,100006.69
2023-01-13T14:02:25.625Z,100034.41
2023-01-13T14:05:08.488Z,100022.25
2023-01-13T14:07:45.489Z,100006.31
2023-01-13T14:10:27.749Z,100005.38
2023-01-13T14:12:55.963Z,100017.91
2023-01-13T14:15:26.612Z,100020.38
2023-01-13T14:18:02.623Z,100022.75
2023-01-13T14:20:36.282Z,100017.06
2023-01-13T14:23:09.110Z,100028.03
2023-01-13T14:25:40.107Z,100019.81
2023-01-13T14:28:25.760Z,100026.44
2023-01-13T14:30:54.772Z,100033.94
2023-01-13T14:33:26.623Z,100023.25
2023-01-13T14:36:24.988Z,100036.00
2023-01-13T14:39:26.645Z,100018.44
2023-01-13T14:41:56.053Z,100029.41
2023-01-13T14:44:28.124Z,100026.50
2023-01-13T14:46:57.373Z,100035.97
2023-01-13T14:49:30.075Z,100038.13
2023-01-13T14:52:08.012Z,100036.38
2023-01-13T14:54:46.777Z,100041.28
2023-01-13T14:57:17.810Z,100032.66
2023-01-13T14:59:51.901Z,100044.00
2023-01-13T15:02:45.865Z,100046.75
2023-01-13T15:05:49.451Z,100053.78
2023-01-13T15:08:28.100Z,100055.03
2023-01-13T15:11:00.199Z,100046.44
2023-01-13T15:13:36.134Z,100048.47
2023-01-13T15:16:10.634Z,100050.56
2023-01-13T15:18:41.297Z,100055.91
2023-01-13T15:21:12.009Z,100061.00
2023-01-13T15:23:47.213Z,100049.94
2023-01-13T15:26:24.684Z,100052.09
2023-01-13T15:28:54.029Z,100049.56
2023-01-13T15:31:23.643Z,100061.31
2023-01-13T15:33:52.444Z,100057.72
2023-01-13T15:36:25.297Z,100051.53
2023-01-13T15:38:55.241Z,100054.69
2023-01-13T15:41:42.905Z,100051.09
2023-01-13T15:44:29.694Z,100066.59
2023-01-13T15:46:59.208Z,100058.28
2023-01-13T15:49:35.671Z,100068.94
2023-01-13T15:52:19.581Z,100069.25
2023-01-13T15:55:02.795Z,100059.56
2023-01-13T15:57:33.209Z,100072.84
2023-01-13T16:00:04.428Z,100063.53
2023-01-13T16:02:35.195Z,100064.38
2023-01-13T16:05:03.816Z,100074.44
2023-01-13T16:07:35.331Z,100069.16
2023-01-13T16:10:13.904Z,100081.44
2023-01-13T16:12:42.308Z,100100.50
2023-01-13T16:15:12.389Z,100084.34
2023-01-13T16:17:46.963Z,100081.84
2023-01-13T16:20:16.471Z,100108.34
2023-01-13T16:22:47.833Z,100105.03
2023-01-13T16:25:20.779Z,100107.53
2023-01-13T16:27:49.461Z,100104.19
2023-01-13T16:30:46.483Z,100124.13
2023-01-13T16:33:33.558Z,100113.00
2023-01-13T16:36:12.102Z,100125.97
2023-01-13T16:38:43.375Z,100119.75
2023-01-13T16:41:12.979Z,100141.53
2023-01-13T16:43:43.464Z,100137.09
2023-01-13T16:46:25.943Z,100141.78
2023-01-13T16:48:59.259Z,100138.91
2023-01-13T16:51:27.778Z,100144.44
2023-01-13T16:53:56.265Z,100142.94
2023-01-13T16:56:27.773Z,100134.97
2023-01-13T16:58:57.750Z,100162.72
2023-01-13T17:01:27.177Z,100156.25
2023-01-13T17:03:55.813Z,100170.81
2023-01-13T17:06:26.489Z,100160.22
2023-01-13T17:08:54.618Z,100162.84
2023-01-13T17:11:22.900Z,100168.34
2023-01-13T17:13:52.457Z,100173.06
2023-01-13T17:16:22.707Z,100180.16
2023-01-13T17:18:51.062Z,100187.94
2023-01-13T17:21:19.645Z,100173.50
2023-01-13T17:23:47.874Z,100181.50
2023-01-13T17:26:32.353Z,100193.91
2023-01-13T17:29:03.336Z,100180.94
2023-01-13T17:31:32.028Z,100200.88
2023-01-13T17:34:00.187Z,100194.09
2023-01-13T17:36:28.126Z,100195.19
2023-01-13T17:38:57.118Z,100196.69
2023-01-13T17:41:26.485Z,100199.03
2023-01-13T17:43:56.169Z,100201.69
2023-01-13T17:46:25.662Z,100203.44
2023-01-13T17:48:54.323Z,100216.19
2023-01-13T17:51:25.146Z,100205.06
2023-01-13T17:53:54.871Z,100219.19
2023-01-13T17:56:26.673Z,100230.09
2023-01-13T17:58:59.024Z,100224.50
2023-01-13T18:01:32.891Z,100214.22
2023-01-13T18:04:02.136Z,100227.97
2023-01-13T18:06:38.791Z,100218.13
2023-01-13T18:09:07.038Z,100223.22
2023-01-13T18:11:35.403Z,100219.91
2023-01-13T18:14:03.473Z,100239.47
2023-01-13T18:16:35.553Z,100227.13
2023-01-13T18:19:17.732Z,100234.41
2023-01-13T18:22:06.402Z,100232.34
2023-01-13T18:24:52.421Z,100241.78
2023-01-13T18:27:24.445Z,100245.75
2023-01-13T18:29:54.544Z,100246.25
2023-01-13T18:32:26.771Z,100244.19
2023-01-13T18:35:05.126Z,100247.13
2023-01-13T18:37:35.985Z,100231.50
2023-01-13T18:40:05.331Z,100249.16
2023-01-13T18:42:50.898Z,100251.88
2023-01-13T18:45:20.348Z,100244.28
2023-01-13T18:47:51.883Z,100257.44
2023-01-13T18:50:21.607Z,100265.13
2023-01-13T18:52:54.066Z,100268.31
2023-01-13T18:55:22.702Z,100270.41
2023-01-13T18:57:51.007Z,100268.53
2023-01-13T19:00:21.959Z,100265.22
2023-01-13T19:05:35.120Z,100272.66
2023-01-13T19:08:04.605Z,100275.34
2023-01-13T19:10:33.257Z,100276.94
2023-01-13T19:13:02.849Z,100294.63
2023-01-13T19:15:31.723Z,100297.22
2023-01-13T19:18:03.414Z,100284.41
2023-01-13T19:20:31.730Z,100298.56
2023-01-13T19:23:00.201Z,100296.63
2023-01-13T19:25:30.421Z,100294.44
2023-01-13T19:27:59.466Z,100303.91
2023-01-13T19:30:28.464Z,100313.66
2023-01-13T19:32:58.021Z,100301.56
2023-01-13T19:35:28.419Z,100309.91
2023-01-13T19:37:57.643Z,100305.84
2023-01-13T19:40:29.715Z,100321.56
2023-01-13T19:43:15.695Z,100332.16
2023-01-13T19:45:45.305Z,100323.94
2023-01-13T19:48:16.236Z,100319.59
2023-01-13T19:50:46.091Z,100329.72
2023-01-13T19:53:17.961Z,100328.44
2023-01-13T19:55:48.524Z,100329.53
2023-01-13T19:58:19.106Z,100336.41
2023-01-13T20:00:48.656Z,100324.22
2023-01-13T20:03:17.980Z,100333.06
2023-01-13T20:05:49.317Z,100338.09
2023-01-13T20:08:18.455Z,100353.25
2023-01-13T20:10:47.231Z,100341.94
2023-01-13T20:13:15.997Z,100351.00
2023-01-13T20:15:46.791Z,100364.66
2023-01-13T20:18:15.250Z,100360.47
2023-01-13T20:20:43.992Z,100364.03
2023-01-13T20:23:14.515Z,100363.13
2023-01-13T20:25:47.756Z,100363.59
2023-01-13T20:28:17.322Z,100369.06
2023-01-13T20:30:46.330Z,100375.88
2023-01-13T20:33:15.453Z,100369.91
2023-01-13T20:35:45.492Z,100369.13
2023-01-13T20:38:16.579Z,100384.56
2023-01-13T20:40:44.914Z,100367.81
2023-01-13T20:43:14.308Z,100377.00
2023-01-13T20:45:45.489Z,100387.19
2023-01-13T20:48:19.879Z,100394.03
2023-01-13T20:50:54.412Z,100387.44
2023-01-13T20:53:28.887Z,100389.97
2023-01-13T20:56:02.272Z,100384.19
2023-01-13T20:58:30.707Z,100376.66
2023-01-13T21:01:02.701Z,100376.63
2023-01-13T21:03:33.731Z,100375.50
2023-01-13T21:06:02.224Z,100362.41
2023-01-13T21:08:32.719Z,100371.16
2023-01-13T21:11:08.307Z,100392.03
2023-01-13T21:13:53.988Z,100389.44
2023-01-13T21:16:27.002Z,100392.31
2023-01-13T21:19:18.943Z,100393.28
2023-01-13T21:21:47.077Z,100408.91
2023-01-13T21:24:18.235Z,100404.88
2023-01-13T21:26:53.595Z,100395.81
2023-01-13T21:29:34.553Z,100408.84
2023-01-13T21:32:11.416Z,100395.22
2023-01-13T21:34:40.179Z,100409.13
2023-01-13T21:37:08.973Z,100425.91
2023-01-13T21:39:44.654Z,100413.47
2023-01-13T21:42:33.487Z,100418.25
2023-01-13T21:45:18.889Z,100428.50
2023-01-13T21:47:51.816Z,100426.97
2023-01-13T21:50:22.846Z,100417.56
2023-01-13T21:52:53.061Z,100423.78
2023-01-13T21:55:28.821Z,100424.81
2023-01-13T21:57:58.964Z,100432.25
2023-01-13T22:00:29.556Z,100426.94
2023-01-13T22:03:00.522Z,100429.41
2023-01-13T22:05:28.646Z,100426.41
2023-01-13T22:07:57.192Z,100437.44
2023-01-13T22:10:30.116Z,100444.00
2023-01-13T22:13:20.596Z,100435.50
2023-01-13T22:15:51.280Z,100446.63
2023-01-13T22:18:19.718Z,100439.31
2023-01-13T22:20:49.571Z,100439.38
2023-01-13T22:23:18.226Z,100446.78
2023-01-13T22:25:48.018Z,100444.66
2023-01-13T22:28:23.992Z,100456.03
2023-01-13T22:30:53.683Z,100446.41
2023-01-13T22:33:22.678Z,100446.66
2023-01-13T22:35:57.003Z,100466.31
2023-01-13T22:38:27.808Z,100460.06
2023-01-13T22:41:02.007Z,100465.84
2023-01-13T22:43:31.183Z,100467.75
2023-01-13T22:45:59.793Z,100469.53
2023-01-13T22:48:28.262Z,100478.00
2023-01-13T22:50:56.435Z,100489.03
2023-01-13T22:53:25.295Z,100474.97
2023-01-13T22:55:57.377Z,100482.53
2023-01-13T22:58:27.981Z,100494.34
2023-01-13T23:00:56.783Z,100493.38
2023-01-13T23:03:25.240Z,100510.53
2023-01-13T23:05:58.701Z,100514.50
2023-01-13T23:08:26.948Z,100505.19
2023-01-13T23:11:02.184Z,100498.50
2023-01-13T23:13:33.163Z,100503.97
2023-01-13T23:16:03.388Z,100508.91
2023-01-13T23:18:31.525Z,100500.19
2023-01-13T23:21:04.039Z,100507.53
2023-01-13T23:23:32.830Z,100509.22
2023-01-13T23:26:01.152Z,100516.50
2023-01-13T23:28:29.722Z,100523.50
2023-01-13T23:30:59.706Z,100511.63
2023-01-13T23:33:28.313Z,100515.59
2023-01-13T23:35:57.425Z,100512.69
2023-01-13T23:38:26.197Z,100523.63
2023-01-13T23:40:54.895Z,100524.59
2023-01-13T23:43:23.515Z,100524.19
2023-01-13T23:45:51.632Z,100525.72
2023-01-13T23:48:21.635Z,100542.06
2023-01-13T23:50:59.304Z,100537.16
2023-01-13T23:53:33.464Z,100546.06
2023-01-13T23:56:04.052Z,100532.53
2023-01-13T23:58:36.858Z,100527.34
